createdAt,value
2022-10-06T00:00:52.827Z,10.90
2022-10-06T00:03:20.637Z,10.80
2022-10-06T00:05:49.670Z,10.70
2022-10-06T00:08:16.669Z,10.70
2022-10-06T00:10:43.384Z,11.00
2022-10-06T00:13:11.056Z,10.80
2022-10-06T00:15:37.872Z,10.80
2022-10-06T00:18:04.944Z,10.80
2022-10-06T00:20:32.462Z,10.90
2022-10-06T00:23:00.550Z,10.70
2022-10-06T00:25:27.500Z,10.80
2022-10-06T00:27:55.500Z,11.00
2022-10-06T00:30:23.918Z,10.70
2022-10-06T00:32:52.404Z,10.60
2022-10-06T00:35:19.843Z,10.40
2022-10-06T00:37:46.613Z,10.50
2022-10-06T00:40:14.738Z,10.30
2022-10-06T00:42:51.549Z,10.60
2022-10-06T00:45:22.906Z,10.70
2022-10-06T00:47:50.245Z,10.70
2022-10-06T00:50:17.483Z,10.80
2022-10-06T00:52:44.370Z,10.60
2022-10-06T00:55:11.822Z,10.60
2022-10-06T00:57:40.979Z,10.40
2022-10-06T01:00:09.551Z,10.20
2022-10-06T01:02:42.603Z,10.40
2022-10-06T01:05:14.242Z,10.40
2022-10-06T01:07:41.764Z,10.50
2022-10-06T01:10:08.924Z,10.30
2022-10-06T01:12:35.973Z,10.40
2022-10-06T01:15:05.867Z,10.20
2022-10-06T01:17:36.360Z,10.50
2022-10-06T01:20:06.541Z,10.40
2022-10-06T01:22:37.059Z,10.50
2022-10-06T01:25:07.449Z,10.40
2022-10-06T01:27:36.787Z,10.30
2022-10-06T01:30:06.977Z,10.30
2022-10-06T01:32:37.473Z,10.40
2022-10-06T01:35:06.691Z,10.30
2022-10-06T01:37:35.086Z,10.10
2022-10-06T01:40:01.883Z,10.30
2022-10-06T01:42:29.335Z,10.10
2022-10-06T01:44:56.047Z,10.20
2022-10-06T01:47:22.752Z,10.00
2022-10-06T01:49:50.051Z,10.10
2022-10-06T01:52:16.847Z,10.10
2022-10-06T01:54:44.895Z,10.10
2022-10-06T01:57:12.235Z,10.00
2022-10-06T01:59:38.953Z,10.00
2022-10-06T02:02:05.714Z,9.90
2022-10-06T02:04:33.132Z,9.70
2022-10-06T02:06:59.860Z,9.80
2022-10-06T02:09:26.579Z,9.80
2022-10-06T02:11:55.241Z,9.60
2022-10-06T02:14:21.957Z,9.50
2022-10-06T02:16:48.677Z,9.70
2022-10-06T02:19:16.080Z,9.50
2022-10-06T02:21:42.796Z,9.50
2022-10-06T02:24:09.631Z,9.50
2022-10-06T02:26:36.954Z,9.60
2022-10-06T02:29:04.986Z,9.60
2022-10-06T02:31:32.066Z,9.50
2022-10-06T02:33:59.448Z,9.40
2022-10-06T02:36:26.173Z,9.50
2022-10-06T02:38:53.400Z,9.40
2022-10-06T02:41:20.743Z,9.50
2022-10-06T02:43:47.556Z,9.30
2022-10-06T02:46:15.680Z,9.30
2022-10-06T02:48:43.155Z,9.40
2022-10-06T02:51:12.422Z,9.40
2022-10-06T02:53:39.368Z,9.20
2022-10-06T02:56:10.590Z,9.30
2022-10-06T02:58:38.307Z,9.20
2022-10-06T03:01:06.899Z,9.20
2022-10-06T03:03:35.780Z,9.10
2022-10-06T03:06:04.805Z,9.20
2022-10-06T03:08:32.075Z,8.90
2022-10-06T03:11:00.597Z,9.00
2022-10-06T03:13:27.993Z,8.80
2022-10-06T03:15:54.745Z,8.80
2022-10-06T03:18:22.215Z,8.80
2022-10-06T03:20:50.396Z,8.80
2022-10-06T03:23:17.146Z,8.90
2022-10-06T03:25:44.502Z,8.90
2022-10-06T03:28:11.303Z,8.90
2022-10-06T03:30:38.043Z,8.80
2022-10-06T03:33:05.374Z,8.80
2022-10-06T03:35:32.073Z,8.80
2022-10-06T03:38:00.703Z,8.60
2022-10-06T03:40:28.022Z,8.70
2022-10-06T03:42:54.730Z,8.70
2022-10-06T03:45:21.461Z,8.60
2022-10-06T03:47:48.786Z,8.60
2022-10-06T03:50:15.634Z,8.60
2022-10-06T03:52:42.356Z,8.60
2022-10-06T03:55:11.014Z,8.50
2022-10-06T03:57:37.736Z,8.50
2022-10-06T04:00:05.678Z,8.60
2022-10-06T04:02:33.025Z,8.60
2022-10-06T04:04:59.766Z,8.50
2022-10-06T04:07:26.479Z,8.50
2022-10-06T04:09:53.828Z,8.40
2022-10-06T04:12:21.870Z,8.50
2022-10-06T04:14:48.620Z,8.30
2022-10-06T04:17:15.938Z,8.40
2022-10-06T04:19:42.644Z,8.40
2022-10-06T04:22:09.356Z,8.10
2022-10-06T04:24:36.673Z,8.30
2022-10-06T04:27:03.527Z,8.20
2022-10-06T04:29:32.176Z,8.20
2022-10-06T04:31:58.977Z,8.30
2022-10-06T04:34:25.795Z,8.20
2022-10-06T04:36:53.124Z,8.30
2022-10-06T04:39:19.818Z,8.50
2022-10-06T04:41:46.587Z,8.20
2022-10-06T04:44:13.991Z,8.30
2022-10-06T04:46:44.189Z,8.20
2022-10-06T04:49:18.998Z,8.30
2022-10-06T04:51:47.634Z,8.30
2022-10-06T04:54:14.383Z,8.20
2022-10-06T04:56:41.186Z,8.20
2022-10-06T04:59:08.530Z,8.20
2022-10-06T05:01:36.540Z,8.10
2022-10-06T05:04:05.778Z,8.20
2022-10-06T05:06:34.739Z,8.00
2022-10-06T05:09:03.958Z,7.90
2022-10-06T05:11:30.826Z,7.90
2022-10-06T05:13:58.562Z,7.90
2022-10-06T05:16:26.910Z,8.10
2022-10-06T05:18:54.003Z,8.00
2022-10-06T05:21:24.161Z,7.90
2022-10-06T05:23:50.931Z,7.80
2022-10-06T05:26:19.177Z,7.70
2022-10-06T05:28:46.614Z,7.90
2022-10-06T05:31:16.145Z,8.00
2022-10-06T05:33:43.259Z,7.80
2022-10-06T05:36:12.943Z,7.90
2022-10-06T05:38:40.862Z,7.80
2022-10-06T05:41:10.283Z,7.80
2022-10-06T05:43:38.210Z,7.80
2022-10-06T05:46:06.463Z,7.80
2022-10-06T05:48:33.353Z,7.70
2022-10-06T05:51:02.808Z,7.70
2022-10-06T05:53:30.755Z,7.80
2022-10-06T05:56:07.194Z,7.80
2022-10-06T05:58:35.910Z,7.80
2022-10-06T06:01:07.386Z,7.80
2022-10-06T06:03:34.761Z,7.70
2022-10-06T06:06:01.626Z,7.80
2022-10-06T06:08:28.745Z,7.70
2022-10-06T06:11:05.789Z,7.80
2022-10-06T06:13:32.705Z,7.70
2022-10-06T06:16:00.270Z,7.70
2022-10-06T06:18:27.795Z,7.70
2022-10-06T06:20:58.477Z,7.70
2022-10-06T06:23:30.799Z,7.70
2022-10-06T06:26:02.280Z,7.80
2022-10-06T06:28:32.024Z,7.80
2022-10-06T06:31:00.474Z,7.90
2022-10-06T06:33:27.214Z,8.00
2022-10-06T06:35:54.538Z,8.10
2022-10-06T06:38:21.308Z,8.00
2022-10-06T06:40:48.017Z,8.10
2022-10-06T06:43:15.392Z,8.00
2022-10-06T06:45:43.499Z,8.10
2022-10-06T06:48:13.801Z,8.10
2022-10-06T06:50:41.283Z,8.10
2022-10-06T06:53:08.231Z,8.20
2022-10-06T06:55:35.975Z,8.30
2022-10-06T06:58:03.297Z,8.40
2022-10-06T07:00:35.277Z,8.50
2022-10-06T07:03:04.818Z,8.50
2022-10-06T07:05:31.585Z,8.60
2022-10-06T07:07:58.311Z,8.60
2022-10-06T07:10:26.349Z,8.70
2022-10-06T07:12:53.055Z,8.70
2022-10-06T07:15:19.782Z,8.80
2022-10-06T07:17:47.092Z,8.90
2022-10-06T07:20:15.358Z,8.90
2022-10-06T07:22:42.174Z,9.00
2022-10-06T07:25:15.296Z,9.10
2022-10-06T07:27:44.416Z,9.20
2022-10-06T07:30:15.082Z,9.30
2022-10-06T07:32:41.794Z,9.30
2022-10-06T07:35:09.198Z,9.40
2022-10-06T07:37:38.076Z,9.50
2022-10-06T07:40:06.895Z,9.60
2022-10-06T07:42:33.878Z,9.70
2022-10-06T07:45:01.203Z,9.90
2022-10-06T07:47:27.903Z,10.00
2022-10-06T07:49:54.622Z,10.10
2022-10-06T07:52:21.960Z,10.30
2022-10-06T07:54:50.027Z,10.30
2022-10-06T07:57:16.766Z,10.40
2022-10-06T07:59:44.114Z,10.60
2022-10-06T08:02:10.926Z,10.50
2022-10-06T08:04:37.775Z,10.70
2022-10-06T08:07:05.084Z,10.70
2022-10-06T08:09:31.858Z,10.70
2022-10-06T08:11:59.904Z,11.00
2022-10-06T08:14:27.228Z,11.10
2022-10-06T08:16:53.943Z,11.20
2022-10-06T08:19:21.300Z,11.30
2022-10-06T08:21:48.598Z,11.50
2022-10-06T08:24:15.315Z,11.60
2022-10-06T08:26:42.042Z,11.60
2022-10-06T08:29:10.710Z,11.40
2022-10-06T08:31:37.504Z,12.10
2022-10-06T08:34:06.653Z,12.20
2022-10-06T08:36:37.374Z,12.00
2022-10-06T08:39:04.120Z,12.20
2022-10-06T08:41:39.077Z,12.20
2022-10-06T08:44:19.350Z,12.10
2022-10-06T08:46:52.635Z,12.20
2022-10-06T08:49:23.114Z,12.00
2022-10-06T08:51:56.815Z,12.30
2022-10-06T08:54:32.100Z,12.10
2022-10-06T08:57:06.386Z,12.50
2022-10-06T08:59:36.443Z,12.70
2022-10-06T09:02:13.826Z,12.50
2022-10-06T09:04:41.193Z,12.30
2022-10-06T09:07:14.662Z,12.50
2022-10-06T09:09:51.709Z,12.80
2022-10-06T09:12:26.834Z,13.30
2022-10-06T09:15:10.365Z,13.60
2022-10-06T09:17:40.431Z,12.80
2022-10-06T09:20:15.789Z,13.30
2022-10-06T09:22:44.306Z,13.70
2022-10-06T09:25:16.608Z,13.40
2022-10-06T09:27:45.690Z,13.70
2022-10-06T09:30:14.724Z,13.00
2022-10-06T09:32:46.552Z,13.80
2022-10-06T09:35:18.367Z,13.60
2022-10-06T09:37:55.551Z,13.70
2022-10-06T09:40:37.687Z,13.40
2022-10-06T09:43:16.649Z,13.80
2022-10-06T09:45:45.497Z,13.50
2022-10-06T09:48:18.997Z,13.90
2022-10-06T09:51:08.109Z,13.90
2022-10-06T09:53:37.653Z,13.90
2022-10-06T09:56:12.941Z,14.10
2022-10-06T09:58:39.755Z,14.00
2022-10-06T10:01:11.604Z,13.50
2022-10-06T10:04:02.064Z,13.50
2022-10-06T10:06:34.087Z,14.20
2022-10-06T10:09:26.709Z,13.90
2022-10-06T10:12:01.554Z,13.80
2022-10-06T10:14:36.702Z,14.90
2022-10-06T10:17:12.627Z,14.00
2022-10-06T10:19:39.467Z,13.80
2022-10-06T10:22:16.661Z,14.40
2022-10-06T10:24:54.383Z,14.70
2022-10-06T10:27:27.042Z,13.90
2022-10-06T10:30:01.925Z,14.80
2022-10-06T10:32:56.575Z,13.90
2022-10-06T10:35:27.174Z,14.60
2022-10-06T10:38:00.466Z,14.60
2022-10-06T10:40:34.960Z,14.60
2022-10-06T10:43:19.686Z,15.50
2022-10-06T10:45:50.425Z,15.20
2022-10-06T10:48:28.241Z,14.30
2022-10-06T10:51:01.954Z,14.40
2022-10-06T10:53:42.649Z,13.70
2022-10-06T10:56:12.403Z,13.70
2022-10-06T10:58:42.132Z,14.70
2022-10-06T11:01:19.556Z,15.40
2022-10-06T11:03:49.790Z,15.00
2022-10-06T11:06:38.331Z,14.60
2022-10-06T11:09:09.587Z,14.40
2022-10-06T11:11:52.454Z,15.00
2022-10-06T11:14:30.973Z,14.70
2022-10-06T11:17:06.974Z,14.10
2022-10-06T11:19:47.507Z,13.40
2022-10-06T11:22:25.447Z,13.70
2022-10-06T11:25:01.426Z,14.30
2022-10-06T11:27:40.535Z,14.60
2022-10-06T11:30:14.438Z,14.80
2022-10-06T11:32:51.766Z,15.30
2022-10-06T11:35:22.072Z,16.10
2022-10-06T11:37:55.635Z,15.30
2022-10-06T11:40:47.823Z,15.00
2022-10-06T11:43:23.342Z,14.90
2022-10-06T11:45:58.281Z,15.20
2022-10-06T11:48:27.822Z,14.60
2022-10-06T11:51:15.230Z,14.80
2022-10-06T11:53:42.027Z,15.00
2022-10-06T11:56:37.426Z,14.70
2022-10-06T11:59:25.914Z,15.30
2022-10-06T12:01:55.984Z,15.00
2022-10-06T12:04:24.649Z,14.30
2022-10-06T12:07:02.178Z,15.10
2022-10-06T12:10:31.239Z,15.60
2022-10-06T12:13:31.762Z,15.90
2022-10-06T12:19:18.903Z,16.10
2022-10-06T12:21:53.512Z,15.30
2022-10-06T12:24:30.493Z,15.20
2022-10-06T12:27:18.857Z,15.30
2022-10-06T12:29:51.363Z,15.80
2022-10-06T12:32:32.936Z,16.20
2022-10-06T12:35:14.867Z,16.30
2022-10-06T12:37:50.138Z,16.60
2022-10-06T12:40:50.180Z,16.00
2022-10-06T12:43:41.350Z,15.20
2022-10-06T12:46:15.991Z,15.50
2022-10-06T12:48:53.499Z,15.60
2022-10-06T12:51:29.626Z,15.70
2022-10-06T12:54:05.586Z,15.70
2022-10-06T12:56:36.231Z,15.60
2022-10-06T12:59:17.768Z,15.90
2022-10-06T13:01:44.845Z,16.00
2022-10-06T13:04:30.646Z,15.80
2022-10-06T13:06:57.932Z,15.60
2022-10-06T13:09:25.259Z,15.90
2022-10-06T13:11:53.444Z,15.60
2022-10-06T13:14:20.156Z,15.10
2022-10-06T13:16:48.558Z,14.50
2022-10-06T13:19:18.407Z,14.40
2022-10-06T13:21:46.337Z,14.70
2022-10-06T13:24:17.056Z,14.90
2022-10-06T13:26:44.707Z,14.30
2022-10-06T13:29:21.011Z,14.50
2022-10-06T13:31:52.854Z,14.70
2022-10-06T13:34:28.667Z,14.80
2022-10-06T13:36:58.066Z,15.20
2022-10-06T13:39:25.299Z,15.10
2022-10-06T13:41:54.242Z,15.20
2022-10-06T13:44:35.167Z,15.00
2022-10-06T13:47:05.536Z,15.30
2022-10-06T13:49:36.342Z,15.80
2022-10-06T13:52:10.017Z,15.50
2022-10-06T13:54:45.315Z,15.70
2022-10-06T13:57:34.943Z,16.00
2022-10-06T14:00:06.363Z,15.40
2022-10-06T14:02:33.558Z,15.90
2022-10-06T14:05:25.843Z,15.90
2022-10-06T14:07:56.907Z,15.20
2022-10-06T14:13:01.103Z,16.10
2022-10-06T14:15:33.637Z,15.80
2022-10-06T14:18:03.743Z,15.30
2022-10-06T14:20:37.212Z,15.70
2022-10-06T14:23:32.058Z,16.10
2022-10-06T14:25:58.912Z,15.60
2022-10-06T14:28:26.361Z,15.50
2022-10-06T14:30:54.604Z,15.70
2022-10-06T14:33:21.489Z,16.00
2022-10-06T14:35:48.883Z,15.30
2022-10-06T14:38:15.606Z,15.10
2022-10-06T14:40:42.599Z,15.60
2022-10-06T14:43:10.715Z,16.00
2022-10-06T14:45:40.485Z,15.60
2022-10-06T14:48:08.786Z,15.10
2022-10-06T14:50:36.406Z,15.00
2022-10-06T14:53:03.404Z,14.90
2022-10-06T14:55:30.403Z,15.00
2022-10-06T14:57:58.120Z,15.40
2022-10-06T15:00:25.886Z,14.90
2022-10-06T15:02:52.715Z,15.00
2022-10-06T15:05:21.431Z,14.90
2022-10-06T15:07:48.146Z,15.00
2022-10-06T15:10:15.003Z,15.10
2022-10-06T15:12:42.312Z,14.70
2022-10-06T15:15:09.818Z,14.90
2022-10-06T15:17:36.562Z,14.70
2022-10-06T15:20:04.374Z,14.60
2022-10-06T15:22:32.495Z,14.40
2022-10-06T15:24:59.316Z,14.40
2022-10-06T15:27:26.627Z,14.30
2022-10-06T15:29:53.413Z,14.20
2022-10-06T15:32:20.139Z,14.20
2022-10-06T15:34:51.254Z,14.20
2022-10-06T15:37:17.998Z,14.10
2022-10-06T15:39:46.074Z,14.20
2022-10-06T15:42:13.414Z,14.30
2022-10-06T15:44:40.166Z,14.20
2022-10-06T15:47:07.374Z,14.10
2022-10-06T15:49:34.729Z,14.00
2022-10-06T15:52:03.443Z,13.90
2022-10-06T15:54:32.082Z,13.80
2022-10-06T15:57:01.617Z,13.70
2022-10-06T15:59:29.300Z,13.70
2022-10-06T16:01:57.536Z,13.70
2022-10-06T16:04:25.257Z,13.60
2022-10-06T16:06:52.284Z,13.60
2022-10-06T16:09:18.985Z,13.50
2022-10-06T16:11:47.315Z,13.50
2022-10-06T16:14:15.913Z,13.40
2022-10-06T16:16:43.939Z,13.30
2022-10-06T16:19:11.790Z,13.20
2022-10-06T16:21:39.482Z,13.20
2022-10-06T16:24:06.651Z,13.10
2022-10-06T16:26:34.649Z,13.10
2022-10-06T16:29:01.387Z,13.00
2022-10-06T16:31:29.490Z,12.90
2022-10-06T16:33:56.959Z,12.80
2022-10-06T16:36:23.722Z,12.60
2022-10-06T16:38:51.459Z,12.40
2022-10-06T16:41:19.437Z,12.40
2022-10-06T16:43:47.785Z,12.20
2022-10-06T16:46:16.111Z,12.00
2022-10-06T16:48:45.433Z,11.80
2022-10-06T16:51:17.490Z,11.60
2022-10-06T16:53:46.975Z,11.60
2022-10-06T16:56:15.459Z,11.50
2022-10-06T16:58:43.771Z,11.50
2022-10-06T17:01:11.958Z,11.20
2022-10-06T17:03:39.332Z,11.00
2022-10-06T17:06:10.102Z,10.90
2022-10-06T17:08:38.590Z,10.70
2022-10-06T17:11:09.343Z,10.50
2022-10-06T17:13:37.732Z,10.30
2022-10-06T17:16:06.222Z,10.40
2022-10-06T17:18:33.771Z,10.30
2022-10-06T17:21:02.096Z,10.10
2022-10-06T17:23:34.697Z,10.10
2022-10-06T17:26:11.679Z,10.10
2022-10-06T17:28:39.075Z,9.90
2022-10-06T17:31:06.151Z,9.80
2022-10-06T17:33:35.318Z,9.70
2022-10-06T17:36:04.621Z,9.60
2022-10-06T17:38:31.895Z,9.40
2022-10-06T17:41:00.087Z,9.50
2022-10-06T17:43:27.449Z,9.30
2022-10-06T17:45:54.200Z,9.30
2022-10-06T17:48:25.847Z,9.20
2022-10-06T17:50:57.530Z,9.20
2022-10-06T17:53:24.246Z,9.20
2022-10-06T17:55:50.959Z,9.20
2022-10-06T17:58:19.676Z,9.10
2022-10-06T18:00:46.442Z,9.00
2022-10-06T18:03:13.227Z,9.10
2022-10-06T18:05:40.596Z,9.00
2022-10-06T18:08:07.335Z,9.00
2022-10-06T18:10:34.073Z,9.00
2022-10-06T18:13:01.368Z,8.80
2022-10-06T18:15:29.415Z,8.70
2022-10-06T18:17:56.127Z,8.60
2022-10-06T18:20:23.440Z,8.40
2022-10-06T18:22:50.156Z,8.40
2022-10-06T18:25:16.869Z,8.10
2022-10-06T18:27:46.148Z,7.90
2022-10-06T18:30:13.316Z,7.80
2022-10-06T18:35:00.627Z,7.90
2022-10-06T18:38:15.473Z,8.00
2022-10-06T18:40:44.311Z,8.10
2022-10-06T18:43:11.034Z,8.20
2022-10-06T18:45:39.561Z,8.20
2022-10-06T18:48:09.717Z,8.20
2022-10-06T18:50:36.532Z,8.10
2022-10-06T18:53:03.369Z,8.10
2022-10-06T18:55:30.753Z,8.10
2022-10-06T18:57:57.503Z,8.00
2022-10-06T19:00:24.218Z,8.00
2022-10-06T19:02:51.610Z,8.00
2022-10-06T19:05:19.681Z,8.00
2022-10-06T19:07:46.433Z,8.00
2022-10-06T19:10:13.898Z,7.90
2022-10-06T19:12:40.619Z,8.00
2022-10-06T19:15:07.765Z,8.00
2022-10-06T19:17:35.100Z,8.10
2022-10-06T19:20:01.801Z,7.90
2022-10-06T19:22:29.877Z,7.80
2022-10-06T19:24:57.234Z,7.90
2022-10-06T19:27:25.031Z,8.00
2022-10-06T19:29:56.270Z,8.10
2022-10-06T19:32:25.742Z,8.10
2022-10-06T19:34:52.763Z,8.10
2022-10-06T19:37:19.721Z,8.10
2022-10-06T19:39:48.379Z,8.20
2022-10-06T19:42:17.619Z,8.20
2022-10-06T19:44:46.147Z,8.10
2022-10-06T19:47:14.801Z,8.10
2022-10-06T19:49:41.896Z,8.10
2022-10-06T19:52:10.496Z,8.10
2022-10-06T19:54:37.842Z,8.10
2022-10-06T19:57:06.293Z,8.10
2022-10-06T19:59:33.370Z,8.10
2022-10-06T20:02:00.726Z,8.10
2022-10-06T20:04:27.544Z,8.20
2022-10-06T20:06:54.374Z,8.20
2022-10-06T20:09:23.206Z,8.20
2022-10-06T20:11:51.244Z,8.10
2022-10-06T20:14:21.479Z,8.00
2022-10-06T20:16:51.047Z,8.10
2022-10-06T20:19:18.274Z,8.10
2022-10-06T20:21:45.864Z,8.20
2022-10-06T20:24:14.818Z,8.10
2022-10-06T20:26:42.649Z,8.10
2022-10-06T20:29:10.907Z,8.10
2022-10-06T20:31:41.097Z,8.00
2022-10-06T20:34:10.504Z,8.10
2022-10-06T20:36:38.821Z,8.00
2022-10-06T20:39:06.953Z,8.00
2022-10-06T20:41:34.087Z,8.10
2022-10-06T20:44:02.881Z,8.00
2022-10-06T20:46:31.259Z,8.00
2022-10-06T20:49:00.275Z,7.90
2022-10-06T20:51:27.891Z,7.90
2022-10-06T20:53:54.613Z,7.90
2022-10-06T20:56:21.329Z,7.80
2022-10-06T20:58:48.653Z,7.90
2022-10-06T21:01:15.883Z,7.80
2022-10-06T21:03:43.875Z,7.70
2022-10-06T21:06:13.491Z,7.70
2022-10-06T21:08:40.967Z,7.70
2022-10-06T21:11:07.703Z,7.70
2022-10-06T21:13:35.075Z,7.70
2022-10-06T21:16:02.338Z,7.60
2022-10-06T21:18:29.108Z,7.60
2022-10-06T21:20:57.463Z,7.60
2022-10-06T21:23:25.669Z,7.60
2022-10-06T21:25:52.423Z,7.60
2022-10-06T21:28:19.822Z,7.60
2022-10-06T21:30:46.639Z,7.50
2022-10-06T21:33:13.386Z,7.50
2022-10-06T21:35:40.736Z,7.60
2022-10-06T21:38:11.380Z,7.60
2022-10-06T21:40:39.464Z,7.50
2022-10-06T21:43:06.799Z,7.50
2022-10-06T21:45:33.551Z,7.50
2022-10-06T21:48:00.294Z,7.50
2022-10-06T21:50:27.650Z,7.40
2022-10-06T21:52:54.379Z,7.40
2022-10-06T21:55:21.115Z,7.30
2022-10-06T21:57:49.806Z,7.20
2022-10-06T22:00:16.663Z,7.30
2022-10-06T22:02:43.432Z,7.20
2022-10-06T22:05:10.797Z,7.20
2022-10-06T22:07:37.539Z,7.20
2022-10-06T22:10:05.103Z,7.10
2022-10-06T22:12:32.468Z,7.00
2022-10-06T22:15:00.579Z,6.80
2022-10-06T22:17:27.312Z,6.70
2022-10-06T22:19:54.662Z,6.60
2022-10-06T22:22:21.391Z,6.50
2022-10-06T22:24:48.131Z,6.50
2022-10-06T22:27:15.467Z,6.40
2022-10-06T22:29:42.628Z,6.50
2022-10-06T22:32:11.132Z,6.80
2022-10-06T22:34:38.496Z,6.70
2022-10-06T22:37:05.249Z,6.70
2022-10-06T22:39:31.985Z,6.60
2022-10-06T22:41:59.454Z,6.60
2022-10-06T22:44:26.236Z,6.60
2022-10-06T22:46:53.118Z,6.60
2022-10-06T22:49:21.854Z,6.40
2022-10-06T22:51:48.601Z,6.50
2022-10-06T22:54:18.626Z,6.40
2022-10-06T22:56:46.089Z,6.20
2022-10-06T22:59:12.832Z,6.20
2022-10-06T23:01:39.608Z,6.20
2022-10-06T23:04:06.963Z,6.10
2022-10-06T23:06:35.056Z,6.10
2022-10-06T23:09:04.031Z,6.00
2022-10-06T23:11:31.453Z,5.70
2022-10-06T23:13:58.220Z,5.90
2022-10-06T23:16:25.779Z,5.70
2022-10-06T23:18:53.195Z,5.60
2022-10-06T23:21:22.392Z,5.70
2022-10-06T23:23:52.296Z,5.60
2022-10-06T23:26:21.003Z,5.80
2022-10-06T23:28:51.595Z,6.00
2022-10-06T23:31:18.441Z,5.90
2022-10-06T23:33:46.215Z,5.80
2022-10-06T23:36:13.385Z,5.70
2022-10-06T23:38:40.544Z,5.80
2022-10-06T23:41:09.292Z,5.70
2022-10-06T23:43:36.095Z,5.70
2022-10-06T23:46:03.170Z,5.90
2022-10-06T23:48:30.704Z,5.80
2022-10-06T23:50:59.540Z,5.80
2022-10-06T23:53:27.106Z,5.80
2022-10-06T23:55:54.616Z,5.80
2022-10-06T23:58:22.868Z,5.70
